sensor_id;sensor_type;location;lat;lon;timestamp;P1;durP1;ratioP1;P2;durP2;ratioP2
55082;SDS011;40978;52.850;6.506;2022-09-09T00:01:33;26.30;;;12.27;;
55082;SDS011;40978;52.850;6.506;2022-09-09T00:06:50;19.92;;;10.70;;
55082;SDS011;40978;52.850;6.506;2022-09-09T00:09:29;13.68;;;9.88;;
55082;SDS011;40978;52.850;6.506;2022-09-09T00:15:00;44.53;;;14.18;;
55082;SDS011;40978;52.850;6.506;2022-09-09T00:17:36;11.25;;;9.05;;
55082;SDS011;40978;52.850;6.506;2022-09-09T00:20:14;17.67;;;9.00;;
55082;SDS011;40978;52.850;6.506;2022-09-09T00:22:44;15.55;;;10.50;;
55082;SDS011;40978;52.850;6.506;2022-09-09T00:25:32;15.60;;;10.13;;
55082;SDS011;40978;52.850;6.506;2022-09-09T00:28:09;18.00;;;10.02;;
55082;SDS011;40978;52.850;6.506;2022-09-09T00:30:42;13.95;;;9.65;;
55082;SDS011;40978;52.850;6.506;2022-09-09T00:33:12;16.15;;;9.77;;
55082;SDS011;40978;52.850;6.506;2022-09-09T00:35:50;12.27;;;9.18;;
55082;SDS011;40978;52.850;6.506;2022-09-09T00:38:34;17.23;;;10.93;;
55082;SDS011;40978;52.850;6.506;2022-09-09T00:41:19;16.88;;;10.07;;
55082;SDS011;40978;52.850;6.506;2022-09-09T00:43:49;22.60;;;12.18;;
55082;SDS011;40978;52.850;6.506;2022-09-09T00:46:48;19.80;;;11.13;;
55082;SDS011;40978;52.850;6.506;2022-09-09T00:57:27;18.83;;;11.85;;
55082;SDS011;40978;52.850;6.506;2022-09-09T01:05:22;17.80;;;11.55;;
55082;SDS011;40978;52.850;6.506;2022-09-09T01:08:33;20.77;;;11.40;;
55082;SDS011;40978;52.850;6.506;2022-09-09T01:16:55;42.75;;;15.35;;
55082;SDS011;40978;52.850;6.506;2022-09-09T01:19:27;25.27;;;14.50;;
55082;SDS011;40978;52.850;6.506;2022-09-09T01:22:09;41.30;;;17.40;;
55082;SDS011;40978;52.850;6.506;2022-09-09T01:25:26;17.33;;;11.80;;
55082;SDS011;40978;52.850;6.506;2022-09-09T01:28:09;29.02;;;14.13;;
55082;SDS011;40978;52.850;6.506;2022-09-09T01:30:39;22.90;;;12.15;;
55082;SDS011;40978;52.850;6.506;2022-09-09T01:33:14;27.20;;;13.43;;
55082;SDS011;40978;52.850;6.506;2022-09-09T01:38:19;23.05;;;12.73;;
55082;SDS011;40978;52.850;6.506;2022-09-09T01:40:47;26.08;;;13.20;;
55082;SDS011;40978;52.850;6.506;2022-09-09T01:43:13;26.00;;;13.25;;
55082;SDS011;40978;52.850;6.506;2022-09-09T01:45:39;20.38;;;11.07;;
55082;SDS011;40978;52.850;6.506;2022-09-09T01:48:07;26.10;;;12.30;;
55082;SDS011;40978;52.850;6.506;2022-09-09T01:50:33;15.57;;;10.18;;
55082;SDS011;40978;52.850;6.506;2022-09-09T01:52:59;30.33;;;13.38;;
55082;SDS011;40978;52.850;6.506;2022-09-09T01:55:33;19.40;;;10.10;;
55082;SDS011;40978;52.850;6.506;2022-09-09T02:00:57;16.92;;;10.00;;
55082;SDS011;40978;52.850;6.506;2022-09-09T02:03:40;22.70;;;10.93;;
55082;SDS011;40978;52.850;6.506;2022-09-09T02:08:56;20.02;;;10.55;;
55082;SDS011;40978;52.850;6.506;2022-09-09T02:11:26;39.40;;;12.90;;
55082;SDS011;40978;52.850;6.506;2022-09-09T02:13:58;13.50;;;9.02;;
55082;SDS011;40978;52.850;6.506;2022-09-09T02:21:54;25.08;;;10.35;;
55082;SDS011;40978;52.850;6.506;2022-09-09T02:24:21;37.85;;;12.52;;
55082;SDS011;40978;52.850;6.506;2022-09-09T02:26:49;32.20;;;13.07;;
55082;SDS011;40978;52.850;6.506;2022-09-09T02:29:19;22.10;;;10.40;;
55082;SDS011;40978;52.850;6.506;2022-09-09T02:31:51;48.03;;;14.70;;
55082;SDS011;40978;52.850;6.506;2022-09-09T02:34:21;27.50;;;12.23;;
55082;SDS011;40978;52.850;6.506;2022-09-09T02:36:50;19.88;;;10.85;;
55082;SDS011;40978;52.850;6.506;2022-09-09T02:39:20;18.60;;;9.15;;
55082;SDS011;40978;52.850;6.506;2022-09-09T02:41:45;16.65;;;9.88;;
55082;SDS011;40978;52.850;6.506;2022-09-09T02:44:13;18.98;;;9.32;;
55082;SDS011;40978;52.850;6.506;2022-09-09T02:46:52;28.17;;;10.82;;
55082;SDS011;40978;52.850;6.506;2022-09-09T02:49:27;53.05;;;14.20;;
55082;SDS011;40978;52.850;6.506;2022-09-09T02:52:06;20.50;;;9.10;;
55082;SDS011;40978;52.850;6.506;2022-09-09T02:54:34;15.98;;;8.65;;
55082;SDS011;40978;52.850;6.506;2022-09-09T02:57:04;50.58;;;14.15;;
55082;SDS011;40978;52.850;6.506;2022-09-09T02:59:36;51.60;;;14.73;;
55082;SDS011;40978;52.850;6.506;2022-09-09T03:02:02;21.73;;;10.57;;
55082;SDS011;40978;52.850;6.506;2022-09-09T03:04:29;15.77;;;8.80;;
55082;SDS011;40978;52.850;6.506;2022-09-09T03:06:56;46.55;;;13.32;;
55082;SDS011;40978;52.850;6.506;2022-09-09T03:09:22;18.45;;;9.18;;
55082;SDS011;40978;52.850;6.506;2022-09-09T03:11:48;22.67;;;10.02;;
55082;SDS011;40978;52.850;6.506;2022-09-09T03:14:15;13.32;;;8.00;;
55082;SDS011;40978;52.850;6.506;2022-09-09T03:16:41;16.08;;;9.32;;
55082;SDS011;40978;52.850;6.506;2022-09-09T03:19:08;18.20;;;8.93;;
55082;SDS011;40978;52.850;6.506;2022-09-09T03:21:34;30.38;;;12.00;;
55082;SDS011;40978;52.850;6.506;2022-09-09T03:24:00;36.38;;;13.07;;
55082;SDS011;40978;52.850;6.506;2022-09-09T03:26:28;18.10;;;10.18;;
55082;SDS011;40978;52.850;6.506;2022-09-09T03:28:55;16.90;;;9.30;;
55082;SDS011;40978;52.850;6.506;2022-09-09T03:31:21;16.30;;;8.70;;
55082;SDS011;40978;52.850;6.506;2022-09-09T03:33:47;17.55;;;10.25;;
55082;SDS011;40978;52.850;6.506;2022-09-09T03:36:13;16.45;;;9.20;;
55082;SDS011;40978;52.850;6.506;2022-09-09T03:38:40;15.48;;;9.20;;
55082;SDS011;40978;52.850;6.506;2022-09-09T03:41:06;27.00;;;12.07;;
55082;SDS011;40978;52.850;6.506;2022-09-09T03:43:32;17.52;;;9.23;;
55082;SDS011;40978;52.850;6.506;2022-09-09T03:45:59;26.67;;;12.70;;
55082;SDS011;40978;52.850;6.506;2022-09-09T03:48:25;22.80;;;13.00;;
55082;SDS011;40978;52.850;6.506;2022-09-09T03:50:53;27.38;;;13.63;;
55082;SDS011;40978;52.850;6.506;2022-09-09T03:53:23;17.90;;;12.10;;
55082;SDS011;40978;52.850;6.506;2022-09-09T03:55:50;20.38;;;12.07;;
55082;SDS011;40978;52.850;6.506;2022-09-09T03:58:20;18.98;;;11.63;;
55082;SDS011;40978;52.850;6.506;2022-09-09T04:00:53;19.30;;;11.35;;
55082;SDS011;40978;52.850;6.506;2022-09-09T04:03:20;15.57;;;11.02;;
55082;SDS011;40978;52.850;6.506;2022-09-09T04:05:48;18.25;;;11.43;;
55082;SDS011;40978;52.850;6.506;2022-09-09T04:08:14;32.10;;;14.15;;
55082;SDS011;40978;52.850;6.506;2022-09-09T04:10:40;41.85;;;15.00;;
55082;SDS011;40978;52.850;6.506;2022-09-09T04:13:07;18.50;;;10.93;;
55082;SDS011;40978;52.850;6.506;2022-09-09T04:15:32;16.95;;;10.63;;
55082;SDS011;40978;52.850;6.506;2022-09-09T04:18:00;17.40;;;10.38;;
55082;SDS011;40978;52.850;6.506;2022-09-09T04:20:26;35.47;;;15.23;;
55082;SDS011;40978;52.850;6.506;2022-09-09T04:22:51;28.15;;;13.20;;
55082;SDS011;40978;52.850;6.506;2022-09-09T04:25:17;49.83;;;16.05;;
55082;SDS011;40978;52.850;6.506;2022-09-09T04:27:43;55.40;;;16.98;;
55082;SDS011;40978;52.850;6.506;2022-09-09T04:30:09;19.67;;;12.80;;
55082;SDS011;40978;52.850;6.506;2022-09-09T04:32:35;51.08;;;17.92;;
55082;SDS011;40978;52.850;6.506;2022-09-09T04:35:02;41.28;;;16.38;;
55082;SDS011;40978;52.850;6.506;2022-09-09T04:37:27;33.85;;;16.02;;
55082;SDS011;40978;52.850;6.506;2022-09-09T04:39:53;49.10;;;18.55;;
55082;SDS011;40978;52.850;6.506;2022-09-09T04:42:19;71.18;;;20.65;;
55082;SDS011;40978;52.850;6.506;2022-09-09T04:44:45;24.48;;;14.07;;
55082;SDS011;40978;52.850;6.506;2022-09-09T04:47:10;83.13;;;22.90;;
55082;SDS011;40978;52.850;6.506;2022-09-09T04:49:36;83.00;;;22.08;;
55082;SDS011;40978;52.850;6.506;2022-09-09T04:52:03;21.15;;;14.77;;
55082;SDS011;40978;52.850;6.506;2022-09-09T04:54:29;34.92;;;16.48;;
55082;SDS011;40978;52.850;6.506;2022-09-09T04:56:55;22.05;;;13.57;;
55082;SDS011;40978;52.850;6.506;2022-09-09T04:59:21;58.05;;;18.65;;
55082;SDS011;40978;52.850;6.506;2022-09-09T05:01:47;44.95;;;17.02;;
55082;SDS011;40978;52.850;6.506;2022-09-09T05:04:13;26.10;;;14.98;;
55082;SDS011;40978;52.850;6.506;2022-09-09T05:06:41;40.67;;;17.33;;
55082;SDS011;40978;52.850;6.506;2022-09-09T05:09:07;28.42;;;14.98;;
55082;SDS011;40978;52.850;6.506;2022-09-09T05:11:34;25.15;;;14.90;;
55082;SDS011;40978;52.850;6.506;2022-09-09T05:14:03;22.60;;;13.80;;
55082;SDS011;40978;52.850;6.506;2022-09-09T05:16:29;15.57;;;12.38;;
55082;SDS011;40978;52.850;6.506;2022-09-09T05:18:55;29.35;;;15.52;;
55082;SDS011;40978;52.850;6.506;2022-09-09T05:21:22;45.17;;;18.17;;
55082;SDS011;40978;52.850;6.506;2022-09-09T05:23:50;40.75;;;16.00;;
55082;SDS011;40978;52.850;6.506;2022-09-09T05:26:17;21.05;;;13.02;;
55082;SDS011;40978;52.850;6.506;2022-09-09T05:28:44;27.63;;;14.57;;
55082;SDS011;40978;52.850;6.506;2022-09-09T05:31:11;49.90;;;18.38;;
55082;SDS011;40978;52.850;6.506;2022-09-09T05:33:38;23.67;;;14.23;;
55082;SDS011;40978;52.850;6.506;2022-09-09T05:36:15;22.75;;;14.15;;
55082;SDS011;40978;52.850;6.506;2022-09-09T05:38:42;20.00;;;12.55;;
55082;SDS011;40978;52.850;6.506;2022-09-09T05:41:09;31.13;;;15.43;;
55082;SDS011;40978;52.850;6.506;2022-09-09T05:43:36;24.13;;;13.85;;
55082;SDS011;40978;52.850;6.506;2022-09-09T05:48:32;16.23;;;12.70;;
55082;SDS011;40978;52.850;6.506;2022-09-09T05:50:59;24.20;;;14.60;;
55082;SDS011;40978;52.850;6.506;2022-09-09T05:53:26;17.30;;;12.40;;
55082;SDS011;40978;52.850;6.506;2022-09-09T05:56:01;36.95;;;16.60;;
55082;SDS011;40978;52.850;6.506;2022-09-09T05:58:30;21.05;;;14.23;;
55082;SDS011;40978;52.850;6.506;2022-09-09T06:03:40;25.55;;;15.20;;
55082;SDS011;40978;52.850;6.506;2022-09-09T06:06:07;37.22;;;17.13;;
55082;SDS011;40978;52.850;6.506;2022-09-09T06:08:36;32.78;;;15.88;;
55082;SDS011;40978;52.850;6.506;2022-09-09T06:11:04;13.75;;;11.20;;
55082;SDS011;40978;52.850;6.506;2022-09-09T06:13:34;26.27;;;14.48;;
55082;SDS011;40978;52.850;6.506;2022-09-09T06:16:02;21.65;;;13.55;;
55082;SDS011;40978;52.850;6.506;2022-09-09T06:18:29;15.68;;;12.50;;
55082;SDS011;40978;52.850;6.506;2022-09-09T06:21:01;15.50;;;10.98;;
55082;SDS011;40978;52.850;6.506;2022-09-09T06:23:32;13.25;;;11.00;;
55082;SDS011;40978;52.850;6.506;2022-09-09T06:26:10;16.67;;;13.10;;
55082;SDS011;40978;52.850;6.506;2022-09-09T06:28:37;34.60;;;15.48;;
55082;SDS011;40978;52.850;6.506;2022-09-09T06:31:04;12.23;;;10.25;;
55082;SDS011;40978;52.850;6.506;2022-09-09T06:33:39;17.85;;;11.98;;
55082;SDS011;40978;52.850;6.506;2022-09-09T06:38:35;12.40;;;9.93;;
55082;SDS011;40978;52.850;6.506;2022-09-09T06:41:00;22.83;;;12.27;;
55082;SDS011;40978;52.850;6.506;2022-09-09T06:43:26;16.77;;;11.70;;
55082;SDS011;40978;52.850;6.506;2022-09-09T06:45:57;16.48;;;13.30;;
55082;SDS011;40978;52.850;6.506;2022-09-09T06:48:24;19.67;;;12.32;;
55082;SDS011;40978;52.850;6.506;2022-09-09T06:51:09;13.27;;;10.95;;
55082;SDS011;40978;52.850;6.506;2022-09-09T06:53:38;14.68;;;11.23;;
55082;SDS011;40978;52.850;6.506;2022-09-09T06:58:43;20.75;;;11.82;;
55082;SDS011;40978;52.850;6.506;2022-09-09T07:01:10;21.45;;;11.80;;
55082;SDS011;40978;52.850;6.506;2022-09-09T07:03:38;11.07;;;10.00;;
55082;SDS011;40978;52.850;6.506;2022-09-09T07:06:04;21.25;;;12.38;;
55082;SDS011;40978;52.850;6.506;2022-09-09T07:08:32;17.58;;;11.23;;
55082;SDS011;40978;52.850;6.506;2022-09-09T07:11:05;22.90;;;13.23;;
55082;SDS011;40978;52.850;6.506;2022-09-09T07:13:32;18.70;;;12.10;;
55082;SDS011;40978;52.850;6.506;2022-09-09T07:16:06;19.77;;;12.80;;
55082;SDS011;40978;52.850;6.506;2022-09-09T07:18:36;12.00;;;9.57;;
55082;SDS011;40978;52.850;6.506;2022-09-09T07:21:03;10.65;;;9.13;;
55082;SDS011;40978;52.850;6.506;2022-09-09T07:23:30;8.98;;;8.07;;
55082;SDS011;40978;52.850;6.506;2022-09-09T07:25:56;11.68;;;8.07;;
55082;SDS011;40978;52.850;6.506;2022-09-09T07:28:23;8.98;;;7.82;;
55082;SDS011;40978;52.850;6.506;2022-09-09T07:30:55;11.00;;;7.88;;
55082;SDS011;40978;52.850;6.506;2022-09-09T07:33:23;13.02;;;7.78;;
55082;SDS011;40978;52.850;6.506;2022-09-09T07:35:49;10.27;;;7.25;;
55082;SDS011;40978;52.850;6.506;2022-09-09T07:38:15;13.48;;;8.68;;
55082;SDS011;40978;52.850;6.506;2022-09-09T07:40:41;11.38;;;8.93;;
55082;SDS011;40978;52.850;6.506;2022-09-09T07:43:07;14.13;;;7.97;;
55082;SDS011;40978;52.850;6.506;2022-09-09T07:45:33;8.73;;;6.78;;
55082;SDS011;40978;52.850;6.506;2022-09-09T07:48:01;10.70;;;6.80;;
55082;SDS011;40978;52.850;6.506;2022-09-09T07:50:27;13.25;;;7.72;;
55082;SDS011;40978;52.850;6.506;2022-09-09T07:52:53;7.28;;;5.90;;
55082;SDS011;40978;52.850;6.506;2022-09-09T07:55:19;8.18;;;6.70;;
55082;SDS011;40978;52.850;6.506;2022-09-09T07:57:46;10.10;;;6.53;;
55082;SDS011;40978;52.850;6.506;2022-09-09T08:00:12;10.50;;;6.25;;
55082;SDS011;40978;52.850;6.506;2022-09-09T08:02:39;10.32;;;5.85;;
55082;SDS011;40978;52.850;6.506;2022-09-09T08:05:05;8.48;;;5.28;;
55082;SDS011;40978;52.850;6.506;2022-09-09T08:07:31;8.75;;;5.25;;
55082;SDS011;40978;52.850;6.506;2022-09-09T08:09:57;8.45;;;4.97;;
55082;SDS011;40978;52.850;6.506;2022-09-09T08:12:23;9.73;;;4.70;;
55082;SDS011;40978;52.850;6.506;2022-09-09T08:14:48;8.95;;;4.40;;
55082;SDS011;40978;52.850;6.506;2022-09-09T08:17:14;8.68;;;5.10;;
55082;SDS011;40978;52.850;6.506;2022-09-09T08:19:40;9.23;;;4.95;;
55082;SDS011;40978;52.850;6.506;2022-09-09T08:22:05;9.55;;;4.70;;
55082;SDS011;40978;52.850;6.506;2022-09-09T08:24:32;8.23;;;5.60;;
55082;SDS011;40978;52.850;6.506;2022-09-09T08:26:58;7.20;;;4.85;;
55082;SDS011;40978;52.850;6.506;2022-09-09T08:29:24;11.10;;;5.25;;
55082;SDS011;40978;52.850;6.506;2022-09-09T08:31:54;8.02;;;5.03;;
55082;SDS011;40978;52.850;6.506;2022-09-09T08:34:22;9.63;;;5.35;;
55082;SDS011;40978;52.850;6.506;2022-09-09T08:36:49;11.50;;;5.70;;
55082;SDS011;40978;52.850;6.506;2022-09-09T08:39:16;9.07;;;5.07;;
55082;SDS011;40978;52.850;6.506;2022-09-09T08:50:36;9.15;;;4.13;;
55082;SDS011;40978;52.850;6.506;2022-09-09T08:53:09;9.07;;;4.03;;
55082;SDS011;40978;52.850;6.506;2022-09-09T09:06:44;8.25;;;3.30;;
55082;SDS011;40978;52.850;6.506;2022-09-09T09:09:38;9.55;;;3.45;;
55082;SDS011;40978;52.850;6.506;2022-09-09T09:12:19;10.15;;;3.47;;
55082;SDS011;40978;52.850;6.506;2022-09-09T09:14:48;9.27;;;3.05;;
55082;SDS011;40978;52.850;6.506;2022-09-09T09:17:16;9.52;;;3.22;;
55082;SDS011;40978;52.850;6.506;2022-09-09T09:19:44;13.68;;;2.90;;
55082;SDS011;40978;52.850;6.506;2022-09-09T09:22:18;12.63;;;3.13;;
55082;SDS011;40978;52.850;6.506;2022-09-09T09:24:55;9.38;;;2.55;;
55082;SDS011;40978;52.850;6.506;2022-09-09T09:30:01;9.38;;;3.15;;
55082;SDS011;40978;52.850;6.506;2022-09-09T09:32:53;7.78;;;2.35;;
55082;SDS011;40978;52.850;6.506;2022-09-09T09:35:36;7.88;;;2.33;;
55082;SDS011;40978;52.850;6.506;2022-09-09T09:38:08;9.35;;;2.90;;
55082;SDS011;40978;52.850;6.506;2022-09-09T09:41:15;9.07;;;2.30;;
55082;SDS011;40978;52.850;6.506;2022-09-09T09:43:34;13.60;;;2.50;;
55082;SDS011;40978;52.850;6.506;2022-09-09T09:46:03;8.95;;;2.40;;
55082;SDS011;40978;52.850;6.506;2022-09-09T09:48:29;9.10;;;2.40;;
55082;SDS011;40978;52.850;6.506;2022-09-09T09:50:59;9.65;;;2.20;;
55082;SDS011;40978;52.850;6.506;2022-09-09T09:53:33;9.05;;;1.90;;
55082;SDS011;40978;52.850;6.506;2022-09-09T09:56:01;8.95;;;2.63;;
55082;SDS011;40978;52.850;6.506;2022-09-09T09:58:27;7.10;;;2.00;;
55082;SDS011;40978;52.850;6.506;2022-09-09T10:00:58;10.40;;;2.50;;
55082;SDS011;40978;52.850;6.506;2022-09-09T10:03:27;8.43;;;2.17;;
55082;SDS011;40978;52.850;6.506;2022-09-09T10:05:54;5.28;;;1.40;;
55082;SDS011;40978;52.850;6.506;2022-09-09T10:08:22;8.43;;;1.60;;
55082;SDS011;40978;52.850;6.506;2022-09-09T10:16:21;8.07;;;1.42;;
55082;SDS011;40978;52.850;6.506;2022-09-09T10:29:46;5.97;;;1.38;;
55082;SDS011;40978;52.850;6.506;2022-09-09T10:35:14;7.85;;;2.30;;
55082;SDS011;40978;52.850;6.506;2022-09-09T10:38:14;5.57;;;1.33;;
55082;SDS011;40978;52.850;6.506;2022-09-09T10:43:15;6.35;;;1.45;;
55082;SDS011;40978;52.850;6.506;2022-09-09T10:51:59;6.50;;;1.50;;
55082;SDS011;40978;52.850;6.506;2022-09-09T10:55:01;6.80;;;1.52;;
55082;SDS011;40978;52.850;6.506;2022-09-09T10:57:50;5.50;;;1.20;;
55082;SDS011;40978;52.850;6.506;2022-09-09T11:00:20;4.22;;;1.20;;
55082;SDS011;40978;52.850;6.506;2022-09-09T11:02:58;8.70;;;1.67;;
55082;SDS011;40978;52.850;6.506;2022-09-09T11:08:19;5.30;;;1.35;;
55082;SDS011;40978;52.850;6.506;2022-09-09T11:18:50;5.18;;;1.15;;
55082;SDS011;40978;52.850;6.506;2022-09-09T11:21:45;7.13;;;1.35;;
55082;SDS011;40978;52.850;6.506;2022-09-09T11:24:29;7.10;;;1.30;;
55082;SDS011;40978;52.850;6.506;2022-09-09T11:27:14;4.82;;;1.23;;
55082;SDS011;40978;52.850;6.506;2022-09-09T11:30:04;20.90;;;14.95;;
55082;SDS011;40978;52.850;6.506;2022-09-09T11:35:40;5.90;;;1.23;;
55082;SDS011;40978;52.850;6.506;2022-09-09T11:38:45;7.97;;;1.15;;
55082;SDS011;40978;52.850;6.506;2022-09-09T11:41:12;7.72;;;1.20;;
55082;SDS011;40978;52.850;6.506;2022-09-09T11:46:17;8.32;;;1.25;;
55082;SDS011;40978;52.850;6.506;2022-09-09T11:48:45;9.02;;;1.73;;
55082;SDS011;40978;52.850;6.506;2022-09-09T11:56:25;7.07;;;1.52;;
55082;SDS011;40978;52.850;6.506;2022-09-09T11:58:59;8.93;;;1.77;;
55082;SDS011;40978;52.850;6.506;2022-09-09T12:01:39;5.78;;;1.25;;
55082;SDS011;40978;52.850;6.506;2022-09-09T12:04:12;5.47;;;1.30;;
55082;SDS011;40978;52.850;6.506;2022-09-09T12:07:02;5.80;;;1.52;;
55082;SDS011;40978;52.850;6.506;2022-09-09T12:09:41;9.32;;;1.73;;
55082;SDS011;40978;52.850;6.506;2022-09-09T12:14:58;6.85;;;1.27;;
55082;SDS011;40978;52.850;6.506;2022-09-09T12:17:23;7.63;;;1.45;;
55082;SDS011;40978;52.850;6.506;2022-09-09T12:20:01;5.75;;;1.42;;
55082;SDS011;40978;52.850;6.506;2022-09-09T12:22:51;5.70;;;1.52;;
55082;SDS011;40978;52.850;6.506;2022-09-09T12:25:48;5.15;;;1.58;;
55082;SDS011;40978;52.850;6.506;2022-09-09T12:28:42;6.30;;;1.23;;
55082;SDS011;40978;52.850;6.506;2022-09-09T12:31:27;4.07;;;1.08;;
55082;SDS011;40978;52.850;6.506;2022-09-09T12:34:28;7.05;;;1.40;;
55082;SDS011;40978;52.850;6.506;2022-09-09T12:37:02;6.53;;;1.42;;
55082;SDS011;40978;52.850;6.506;2022-09-09T12:39:45;5.28;;;1.20;;
55082;SDS011;40978;52.850;6.506;2022-09-09T12:42:31;4.97;;;1.10;;
55082;SDS011;40978;52.850;6.506;2022-09-09T12:44:59;6.05;;;1.10;;
55082;SDS011;40978;52.850;6.506;2022-09-09T12:47:28;11.57;;;2.58;;
55082;SDS011;40978;52.850;6.506;2022-09-09T12:49:56;8.15;;;1.38;;
55082;SDS011;40978;52.850;6.506;2022-09-09T12:54:59;5.47;;;1.05;;
55082;SDS011;40978;52.850;6.506;2022-09-09T12:57:29;6.57;;;1.42;;
55082;SDS011;40978;52.850;6.506;2022-09-09T13:02:48;4.95;;;0.73;;
55082;SDS011;40978;52.850;6.506;2022-09-09T13:05:26;6.63;;;0.80;;
55082;SDS011;40978;52.850;6.506;2022-09-09T13:08:04;4.55;;;0.93;;
55082;SDS011;40978;52.850;6.506;2022-09-09T13:10:33;3.83;;;0.88;;
55082;SDS011;40978;52.850;6.506;2022-09-09T13:13:12;5.35;;;1.00;;
55082;SDS011;40978;52.850;6.506;2022-09-09T13:15:49;4.68;;;0.73;;
55082;SDS011;40978;52.850;6.506;2022-09-09T13:18:39;5.03;;;1.00;;
55082;SDS011;40978;52.850;6.506;2022-09-09T13:21:07;4.63;;;0.80;;
55082;SDS011;40978;52.850;6.506;2022-09-09T13:23:33;5.70;;;0.80;;
55082;SDS011;40978;52.850;6.506;2022-09-09T13:26:02;5.63;;;0.70;;
55082;SDS011;40978;52.850;6.506;2022-09-09T13:28:29;5.25;;;0.80;;
55082;SDS011;40978;52.850;6.506;2022-09-09T13:30:59;3.90;;;0.80;;
55082;SDS011;40978;52.850;6.506;2022-09-09T13:33:44;3.80;;;0.90;;
55082;SDS011;40978;52.850;6.506;2022-09-09T13:36:11;4.00;;;0.65;;
55082;SDS011;40978;52.850;6.506;2022-09-09T13:41:29;4.82;;;0.70;;
55082;SDS011;40978;52.850;6.506;2022-09-09T13:43:57;6.93;;;1.02;;
55082;SDS011;40978;52.850;6.506;2022-09-09T13:46:25;3.38;;;0.50;;
55082;SDS011;40978;52.850;6.506;2022-09-09T13:49:22;3.85;;;0.50;;
55082;SDS011;40978;52.850;6.506;2022-09-09T13:51:48;2.80;;;0.47;;
55082;SDS011;40978;52.850;6.506;2022-09-09T13:54:20;2.78;;;0.52;;
55082;SDS011;40978;52.850;6.506;2022-09-09T13:56:46;2.05;;;0.40;;
55082;SDS011;40978;52.850;6.506;2022-09-09T13:59:13;3.25;;;0.47;;
55082;SDS011;40978;52.850;6.506;2022-09-09T14:01:41;4.13;;;0.95;;
55082;SDS011;40978;52.850;6.506;2022-09-09T14:04:07;2.90;;;0.57;;
55082;SDS011;40978;52.850;6.506;2022-09-09T14:06:34;4.32;;;0.70;;
55082;SDS011;40978;52.850;6.506;2022-09-09T14:09:09;3.13;;;0.50;;
55082;SDS011;40978;52.850;6.506;2022-09-09T14:11:36;4.68;;;0.98;;
55082;SDS011;40978;52.850;6.506;2022-09-09T14:14:03;2.47;;;0.82;;
55082;SDS011;40978;52.850;6.506;2022-09-09T14:16:28;6.35;;;1.13;;
55082;SDS011;40978;52.850;6.506;2022-09-09T14:18:54;4.25;;;0.77;;
55082;SDS011;40978;52.850;6.506;2022-09-09T14:21:24;5.80;;;0.80;;
55082;SDS011;40978;52.850;6.506;2022-09-09T14:23:50;2.13;;;0.32;;
55082;SDS011;40978;52.850;6.506;2022-09-09T14:26:18;2.00;;;0.40;;
55082;SDS011;40978;52.850;6.506;2022-09-09T14:28:47;1.73;;;0.40;;
55082;SDS011;40978;52.850;6.506;2022-09-09T14:31:13;2.75;;;0.50;;
55082;SDS011;40978;52.850;6.506;2022-09-09T14:33:39;2.17;;;0.38;;
55082;SDS011;40978;52.850;6.506;2022-09-09T14:36:06;2.20;;;0.60;;
55082;SDS011;40978;52.850;6.506;2022-09-09T14:38:35;2.47;;;0.40;;
55082;SDS011;40978;52.850;6.506;2022-09-09T14:41:10;2.50;;;0.40;;
55082;SDS011;40978;52.850;6.506;2022-09-09T14:43:46;3.92;;;0.70;;
55082;SDS011;40978;52.850;6.506;2022-09-09T14:46:17;2.72;;;0.40;;
55082;SDS011;40978;52.850;6.506;2022-09-09T14:48:48;3.70;;;0.73;;
55082;SDS011;40978;52.850;6.506;2022-09-09T14:51:20;4.10;;;0.70;;
55082;SDS011;40978;52.850;6.506;2022-09-09T14:53:56;4.22;;;0.60;;
55082;SDS011;40978;52.850;6.506;2022-09-09T14:56:24;2.97;;;0.73;;
55082;SDS011;40978;52.850;6.506;2022-09-09T14:58:55;2.33;;;0.50;;
55082;SDS011;40978;52.850;6.506;2022-09-09T15:01:22;6.07;;;1.35;;
55082;SDS011;40978;52.850;6.506;2022-09-09T15:03:50;2.60;;;0.70;;
55082;SDS011;40978;52.850;6.506;2022-09-09T15:06:17;4.97;;;0.70;;
55082;SDS011;40978;52.850;6.506;2022-09-09T15:08:45;2.60;;;0.70;;
55082;SDS011;40978;52.850;6.506;2022-09-09T15:11:12;2.20;;;0.60;;
55082;SDS011;40978;52.850;6.506;2022-09-09T15:13:39;2.75;;;0.77;;
55082;SDS011;40978;52.850;6.506;2022-09-09T15:16:07;2.20;;;0.57;;
55082;SDS011;40978;52.850;6.506;2022-09-09T15:18:37;3.38;;;1.10;;
55082;SDS011;40978;52.850;6.506;2022-09-09T15:21:07;2.97;;;0.80;;
55082;SDS011;40978;52.850;6.506;2022-09-09T15:23:35;3.05;;;0.60;;
55082;SDS011;40978;52.850;6.506;2022-09-09T15:26:01;2.63;;;0.65;;
55082;SDS011;40978;52.850;6.506;2022-09-09T15:28:28;5.07;;;0.93;;
55082;SDS011;40978;52.850;6.506;2022-09-09T15:30:54;4.50;;;0.77;;
55082;SDS011;40978;52.850;6.506;2022-09-09T15:33:21;3.33;;;0.55;;
55082;SDS011;40978;52.850;6.506;2022-09-09T15:35:48;5.43;;;0.80;;
55082;SDS011;40978;52.850;6.506;2022-09-09T15:38:15;3.83;;;0.60;;
55082;SDS011;40978;52.850;6.506;2022-09-09T15:40:42;3.35;;;0.82;;
55082;SDS011;40978;52.850;6.506;2022-09-09T15:43:08;3.00;;;0.70;;
55082;SDS011;40978;52.850;6.506;2022-09-09T15:45:35;4.63;;;0.80;;
55082;SDS011;40978;52.850;6.506;2022-09-09T15:48:02;2.72;;;0.80;;
55082;SDS011;40978;52.850;6.506;2022-09-09T15:50:29;3.38;;;0.77;;
55082;SDS011;40978;52.850;6.506;2022-09-09T15:52:58;4.57;;;0.70;;
55082;SDS011;40978;52.850;6.506;2022-09-09T15:55:25;4.00;;;0.70;;
55082;SDS011;40978;52.850;6.506;2022-09-09T15:57:50;2.13;;;0.30;;
55082;SDS011;40978;52.850;6.506;2022-09-09T16:00:18;3.55;;;1.10;;
55082;SDS011;40978;52.850;6.506;2022-09-09T16:02:44;2.95;;;0.77;;
55082;SDS011;40978;52.850;6.506;2022-09-09T16:05:12;4.00;;;0.90;;
55082;SDS011;40978;52.850;6.506;2022-09-09T16:07:37;2.13;;;0.60;;
55082;SDS011;40978;52.850;6.506;2022-09-09T16:10:03;3.03;;;1.23;;
55082;SDS011;40978;52.850;6.506;2022-09-09T16:12:29;3.00;;;1.10;;
55082;SDS011;40978;52.850;6.506;2022-09-09T16:14:55;3.15;;;0.98;;
55082;SDS011;40978;52.850;6.506;2022-09-09T16:17:20;5.30;;;1.38;;
55082;SDS011;40978;52.850;6.506;2022-09-09T16:19:46;3.70;;;1.40;;
55082;SDS011;40978;52.850;6.506;2022-09-09T16:22:12;3.88;;;1.08;;
55082;SDS011;40978;52.850;6.506;2022-09-09T16:24:40;3.72;;;1.30;;
55082;SDS011;40978;52.850;6.506;2022-09-09T16:27:06;2.03;;;1.10;;
55082;SDS011;40978;52.850;6.506;2022-09-09T16:29:32;4.20;;;1.00;;
55082;SDS011;40978;52.850;6.506;2022-09-09T16:31:58;3.92;;;1.10;;
55082;SDS011;40978;52.850;6.506;2022-09-09T16:34:25;3.40;;;1.27;;
55082;SDS011;40978;52.850;6.506;2022-09-09T16:36:50;3.70;;;1.40;;
55082;SDS011;40978;52.850;6.506;2022-09-09T16:39:18;4.28;;;1.13;;
55082;SDS011;40978;52.850;6.506;2022-09-09T16:41:45;3.25;;;0.90;;
55082;SDS011;40978;52.850;6.506;2022-09-09T16:44:13;2.67;;;0.88;;
55082;SDS011;40978;52.850;6.506;2022-09-09T16:46:45;5.15;;;1.17;;
55082;SDS011;40978;52.850;6.506;2022-09-09T16:49:13;4.85;;;0.95;;
55082;SDS011;40978;52.850;6.506;2022-09-09T16:51:43;4.75;;;1.40;;
55082;SDS011;40978;52.850;6.506;2022-09-09T16:54:12;2.90;;;1.15;;
55082;SDS011;40978;52.850;6.506;2022-09-09T16:56:39;4.75;;;1.00;;
55082;SDS011;40978;52.850;6.506;2022-09-09T16:59:08;4.55;;;1.30;;
55082;SDS011;40978;52.850;6.506;2022-09-09T17:01:37;4.00;;;1.60;;
55082;SDS011;40978;52.850;6.506;2022-09-09T17:04:06;4.15;;;1.48;;
55082;SDS011;40978;52.850;6.506;2022-09-09T17:06:34;4.78;;;1.75;;
55082;SDS011;40978;52.850;6.506;2022-09-09T17:09:03;5.38;;;1.80;;